sensor_id;sensor_type;location;lat;lon;timestamp;P1;durP1;ratioP1;P2;durP2;ratioP2
14292;SDS011;62290;59.420;17.842;2024-01-06T00:02:09;3.85;;;1.20;;
14292;SDS011;62290;59.420;17.842;2024-01-06T00:04:39;1.55;;;0.95;;
14292;SDS011;62290;59.420;17.842;2024-01-06T00:07:07;2.55;;;1.10;;
14292;SDS011;62290;59.420;17.842;2024-01-06T00:09:35;1.17;;;0.80;;
14292;SDS011;62290;59.420;17.842;2024-01-06T00:12:03;2.35;;;1.23;;
14292;SDS011;62290;59.420;17.842;2024-01-06T00:14:32;1.60;;;1.20;;
14292;SDS011;62290;59.420;17.842;2024-01-06T00:17:00;3.28;;;1.40;;
14292;SDS011;62290;59.420;17.842;2024-01-06T00:19:28;2.28;;;1.30;;
14292;SDS011;62290;59.420;17.842;2024-01-06T00:21:58;1.10;;;0.80;;
14292;SDS011;62290;59.420;17.842;2024-01-06T00:24:27;2.47;;;1.17;;
14292;SDS011;62290;59.420;17.842;2024-01-06T00:26:55;1.45;;;1.00;;
14292;SDS011;62290;59.420;17.842;2024-01-06T00:29:23;1.40;;;1.30;;
14292;SDS011;62290;59.420;17.842;2024-01-06T00:31:51;1.63;;;0.90;;
14292;SDS011;62290;59.420;17.842;2024-01-06T00:34:19;1.33;;;1.08;;
14292;SDS011;62290;59.420;17.842;2024-01-06T00:36:47;1.23;;;1.10;;
14292;SDS011;62290;59.420;17.842;2024-01-06T00:39:16;1.33;;;1.05;;
14292;SDS011;62290;59.420;17.842;2024-01-06T00:41:45;3.03;;;0.90;;
14292;SDS011;62290;59.420;17.842;2024-01-06T00:44:13;1.00;;;0.90;;
14292;SDS011;62290;59.420;17.842;2024-01-06T00:46:41;1.30;;;1.05;;
14292;SDS011;62290;59.420;17.842;2024-01-06T00:49:08;2.70;;;1.10;;
14292;SDS011;62290;59.420;17.842;2024-01-06T00:51:37;1.63;;;1.08;;
14292;SDS011;62290;59.420;17.842;2024-01-06T00:54:05;1.80;;;1.10;;
14292;SDS011;62290;59.420;17.842;2024-01-06T00:56:35;1.30;;;1.10;;
14292;SDS011;62290;59.420;17.842;2024-01-06T00:59:03;1.23;;;1.00;;
14292;SDS011;62290;59.420;17.842;2024-01-06T01:01:31;1.40;;;0.90;;
14292;SDS011;62290;59.420;17.842;2024-01-06T01:03:59;1.55;;;1.00;;
14292;SDS011;62290;59.420;17.842;2024-01-06T01:06:28;1.30;;;1.05;;
14292;SDS011;62290;59.420;17.842;2024-01-06T01:08:56;1.15;;;0.90;;
14292;SDS011;62290;59.420;17.842;2024-01-06T01:11:24;0.98;;;0.82;;
14292;SDS011;62290;59.420;17.842;2024-01-06T01:13:53;1.40;;;1.25;;
14292;SDS011;62290;59.420;17.842;2024-01-06T01:16:21;1.20;;;1.00;;
14292;SDS011;62290;59.420;17.842;2024-01-06T01:18:49;1.27;;;1.00;;
14292;SDS011;62290;59.420;17.842;2024-01-06T01:21:17;1.00;;;0.90;;
14292;SDS011;62290;59.420;17.842;2024-01-06T01:23:45;1.42;;;1.00;;
14292;SDS011;62290;59.420;17.842;2024-01-06T01:26:13;1.25;;;1.02;;
14292;SDS011;62290;59.420;17.842;2024-01-06T01:28:41;1.58;;;0.90;;
14292;SDS011;62290;59.420;17.842;2024-01-06T01:31:10;1.05;;;0.95;;
14292;SDS011;62290;59.420;17.842;2024-01-06T01:33:40;1.30;;;1.00;;
14292;SDS011;62290;59.420;17.842;2024-01-06T01:36:08;5.55;;;1.02;;
14292;SDS011;62290;59.420;17.842;2024-01-06T01:38:36;0.93;;;0.80;;
14292;SDS011;62290;59.420;17.842;2024-01-06T01:41:03;1.23;;;0.93;;
14292;SDS011;62290;59.420;17.842;2024-01-06T01:43:31;1.75;;;1.13;;
14292;SDS011;62290;59.420;17.842;2024-01-06T01:45:59;1.52;;;1.13;;
14292;SDS011;62290;59.420;17.842;2024-01-06T01:48:29;1.60;;;0.95;;
14292;SDS011;62290;59.420;17.842;2024-01-06T01:51:00;1.08;;;0.85;;
14292;SDS011;62290;59.420;17.842;2024-01-06T01:53:29;1.13;;;0.80;;
14292;SDS011;62290;59.420;17.842;2024-01-06T01:55:58;2.55;;;0.93;;
14292;SDS011;62290;59.420;17.842;2024-01-06T01:58:27;1.38;;;0.70;;
14292;SDS011;62290;59.420;17.842;2024-01-06T02:00:55;2.08;;;1.05;;
14292;SDS011;62290;59.420;17.842;2024-01-06T02:03:23;2.75;;;0.82;;
14292;SDS011;62290;59.420;17.842;2024-01-06T02:05:54;1.10;;;0.90;;
14292;SDS011;62290;59.420;17.842;2024-01-06T02:08:22;2.60;;;1.40;;
14292;SDS011;62290;59.420;17.842;2024-01-06T02:10:50;1.10;;;0.80;;
14292;SDS011;62290;59.420;17.842;2024-01-06T02:13:19;1.38;;;0.73;;
14292;SDS011;62290;59.420;17.842;2024-01-06T02:15:47;1.10;;;0.75;;
14292;SDS011;62290;59.420;17.842;2024-01-06T02:18:15;1.00;;;0.90;;
14292;SDS011;62290;59.420;17.842;2024-01-06T02:20:43;2.20;;;1.00;;
14292;SDS011;62290;59.420;17.842;2024-01-06T02:23:15;1.95;;;1.20;;
14292;SDS011;62290;59.420;17.842;2024-01-06T02:25:43;7.63;;;0.98;;
14292;SDS011;62290;59.420;17.842;2024-01-06T02:28:11;0.85;;;0.70;;
14292;SDS011;62290;59.420;17.842;2024-01-06T02:30:39;0.70;;;0.70;;
14292;SDS011;62290;59.420;17.842;2024-01-06T02:33:07;1.15;;;0.82;;
14292;SDS011;62290;59.420;17.842;2024-01-06T02:35:35;0.98;;;0.80;;
14292;SDS011;62290;59.420;17.842;2024-01-06T02:38:03;1.27;;;0.70;;
14292;SDS011;62290;59.420;17.842;2024-01-06T02:40:33;0.63;;;0.63;;
14292;SDS011;62290;59.420;17.842;2024-01-06T02:43:01;0.95;;;0.85;;
14292;SDS011;62290;59.420;17.842;2024-01-06T02:45:29;1.40;;;0.95;;
14292;SDS011;62290;59.420;17.842;2024-01-06T02:47:57;0.80;;;0.80;;
14292;SDS011;62290;59.420;17.842;2024-01-06T02:50:25;1.27;;;0.90;;
14292;SDS011;62290;59.420;17.842;2024-01-06T02:52:53;0.65;;;0.60;;
14292;SDS011;62290;59.420;17.842;2024-01-06T02:55:21;1.00;;;0.93;;
14292;SDS011;62290;59.420;17.842;2024-01-06T02:57:50;0.95;;;0.90;;
14292;SDS011;62290;59.420;17.842;2024-01-06T03:00:18;0.82;;;0.80;;
14292;SDS011;62290;59.420;17.842;2024-01-06T03:02:46;0.90;;;0.90;;
14292;SDS011;62290;59.420;17.842;2024-01-06T03:05:14;0.85;;;0.80;;
14292;SDS011;62290;59.420;17.842;2024-01-06T03:07:43;1.00;;;0.90;;
14292;SDS011;62290;59.420;17.842;2024-01-06T03:10:11;0.90;;;0.70;;
14292;SDS011;62290;59.420;17.842;2024-01-06T03:12:39;0.93;;;0.88;;
14292;SDS011;62290;59.420;17.842;2024-01-06T03:15:09;0.70;;;0.70;;
14292;SDS011;62290;59.420;17.842;2024-01-06T03:17:38;0.85;;;0.85;;
14292;SDS011;62290;59.420;17.842;2024-01-06T03:20:06;1.25;;;0.93;;
14292;SDS011;62290;59.420;17.842;2024-01-06T03:22:35;0.82;;;0.73;;
14292;SDS011;62290;59.420;17.842;2024-01-06T03:25:03;0.80;;;0.80;;
14292;SDS011;62290;59.420;17.842;2024-01-06T03:27:32;1.45;;;0.80;;
14292;SDS011;62290;59.420;17.842;2024-01-06T03:30:00;0.93;;;0.80;;
14292;SDS011;62290;59.420;17.842;2024-01-06T03:32:31;1.25;;;0.80;;
14292;SDS011;62290;59.420;17.842;2024-01-06T03:34:59;1.20;;;0.80;;
14292;SDS011;62290;59.420;17.842;2024-01-06T03:37:27;1.00;;;0.90;;
14292;SDS011;62290;59.420;17.842;2024-01-06T03:39:55;1.50;;;0.90;;
14292;SDS011;62290;59.420;17.842;2024-01-06T03:42:23;2.28;;;0.80;;
14292;SDS011;62290;59.420;17.842;2024-01-06T03:44:51;1.00;;;0.90;;
14292;SDS011;62290;59.420;17.842;2024-01-06T03:47:18;1.08;;;0.70;;
14292;SDS011;62290;59.420;17.842;2024-01-06T03:49:48;0.70;;;0.70;;
14292;SDS011;62290;59.420;17.842;2024-01-06T03:52:16;1.00;;;0.88;;
14292;SDS011;62290;59.420;17.842;2024-01-06T03:54:44;1.10;;;0.90;;
14292;SDS011;62290;59.420;17.842;2024-01-06T03:57:12;1.15;;;0.90;;
14292;SDS011;62290;59.420;17.842;2024-01-06T03:59:41;1.02;;;0.70;;
14292;SDS011;62290;59.420;17.842;2024-01-06T04:02:09;0.80;;;0.80;;
14292;SDS011;62290;59.420;17.842;2024-01-06T04:04:37;1.25;;;0.80;;
14292;SDS011;62290;59.420;17.842;2024-01-06T04:07:06;0.93;;;0.82;;
14292;SDS011;62290;59.420;17.842;2024-01-06T04:09:34;1.10;;;0.90;;
14292;SDS011;62290;59.420;17.842;2024-01-06T04:12:03;1.42;;;0.65;;
14292;SDS011;62290;59.420;17.842;2024-01-06T04:14:31;1.27;;;1.00;;
14292;SDS011;62290;59.420;17.842;2024-01-06T04:16:59;1.10;;;0.77;;
14292;SDS011;62290;59.420;17.842;2024-01-06T04:19:28;1.27;;;0.70;;
14292;SDS011;62290;59.420;17.842;2024-01-06T04:21:56;0.82;;;0.70;;
14292;SDS011;62290;59.420;17.842;2024-01-06T04:24:25;1.27;;;0.80;;
14292;SDS011;62290;59.420;17.842;2024-01-06T04:26:53;1.83;;;0.95;;
14292;SDS011;62290;59.420;17.842;2024-01-06T04:29:21;1.73;;;1.13;;
14292;SDS011;62290;59.420;17.842;2024-01-06T04:31:49;0.82;;;0.65;;
14292;SDS011;62290;59.420;17.842;2024-01-06T04:34:17;1.75;;;0.68;;
14292;SDS011;62290;59.420;17.842;2024-01-06T04:36:45;1.00;;;0.90;;
14292;SDS011;62290;59.420;17.842;2024-01-06T04:39:15;0.80;;;0.77;;
14292;SDS011;62290;59.420;17.842;2024-01-06T04:41:44;0.70;;;0.70;;
14292;SDS011;62290;59.420;17.842;2024-01-06T04:44:12;0.98;;;0.85;;
14292;SDS011;62290;59.420;17.842;2024-01-06T04:46:40;3.95;;;0.90;;
14292;SDS011;62290;59.420;17.842;2024-01-06T04:49:08;2.53;;;0.70;;
14292;SDS011;62290;59.420;17.842;2024-01-06T04:51:37;0.82;;;0.65;;
14292;SDS011;62290;59.420;17.842;2024-01-06T04:54:05;0.88;;;0.80;;
14292;SDS011;62290;59.420;17.842;2024-01-06T04:56:33;0.93;;;0.77;;
14292;SDS011;62290;59.420;17.842;2024-01-06T04:59:03;1.83;;;0.90;;
14292;SDS011;62290;59.420;17.842;2024-01-06T05:01:31;0.68;;;0.68;;
14292;SDS011;62290;59.420;17.842;2024-01-06T05:03:59;1.10;;;1.00;;
14292;SDS011;62290;59.420;17.842;2024-01-06T05:06:27;0.73;;;0.60;;
14292;SDS011;62290;59.420;17.842;2024-01-06T05:08:55;1.02;;;0.63;;
14292;SDS011;62290;59.420;17.842;2024-01-06T05:11:23;1.35;;;0.90;;
14292;SDS011;62290;59.420;17.842;2024-01-06T05:13:51;0.77;;;0.50;;
14292;SDS011;62290;59.420;17.842;2024-01-06T05:16:20;0.95;;;0.65;;
14292;SDS011;62290;59.420;17.842;2024-01-06T05:18:48;4.97;;;0.80;;
14292;SDS011;62290;59.420;17.842;2024-01-06T05:21:16;0.60;;;0.60;;
14292;SDS011;62290;59.420;17.842;2024-01-06T05:23:44;0.63;;;0.63;;
14292;SDS011;62290;59.420;17.842;2024-01-06T05:26:12;1.10;;;0.80;;
14292;SDS011;62290;59.420;17.842;2024-01-06T05:28:40;0.82;;;0.80;;
14292;SDS011;62290;59.420;17.842;2024-01-06T05:31:08;0.75;;;0.65;;
14292;SDS011;62290;59.420;17.842;2024-01-06T05:33:38;0.80;;;0.80;;
14292;SDS011;62290;59.420;17.842;2024-01-06T05:36:06;1.15;;;0.70;;
14292;SDS011;62290;59.420;17.842;2024-01-06T05:38:35;0.80;;;0.80;;
14292;SDS011;62290;59.420;17.842;2024-01-06T05:41:03;0.80;;;0.80;;
14292;SDS011;62290;59.420;17.842;2024-01-06T05:43:31;1.20;;;0.98;;
14292;SDS011;62290;59.420;17.842;2024-01-06T05:45:59;0.70;;;0.70;;
14292;SDS011;62290;59.420;17.842;2024-01-06T05:48:27;0.82;;;0.73;;
14292;SDS011;62290;59.420;17.842;2024-01-06T05:50:57;1.02;;;0.90;;
14292;SDS011;62290;59.420;17.842;2024-01-06T05:53:25;2.22;;;0.95;;
14292;SDS011;62290;59.420;17.842;2024-01-06T05:55:53;0.70;;;0.70;;
14292;SDS011;62290;59.420;17.842;2024-01-06T05:58:21;1.38;;;0.85;;
14292;SDS011;62290;59.420;17.842;2024-01-06T06:00:49;0.70;;;0.70;;
14292;SDS011;62290;59.420;17.842;2024-01-06T06:03:17;0.82;;;0.80;;
14292;SDS011;62290;59.420;17.842;2024-01-06T06:05:45;0.65;;;0.65;;
14292;SDS011;62290;59.420;17.842;2024-01-06T06:08:15;0.90;;;0.75;;
14292;SDS011;62290;59.420;17.842;2024-01-06T06:10:43;1.10;;;1.00;;
14292;SDS011;62290;59.420;17.842;2024-01-06T06:13:27;1.02;;;0.88;;
14292;SDS011;62290;59.420;17.842;2024-01-06T06:15:55;1.00;;;0.90;;
14292;SDS011;62290;59.420;17.842;2024-01-06T06:18:24;1.05;;;0.77;;
14292;SDS011;62290;59.420;17.842;2024-01-06T06:20:52;0.70;;;0.68;;
14292;SDS011;62290;59.420;17.842;2024-01-06T06:23:21;1.40;;;0.80;;
14292;SDS011;62290;59.420;17.842;2024-01-06T06:25:49;0.60;;;0.60;;
14292;SDS011;62290;59.420;17.842;2024-01-06T06:28:17;1.00;;;0.70;;
14292;SDS011;62290;59.420;17.842;2024-01-06T06:30:45;0.57;;;0.57;;
14292;SDS011;62290;59.420;17.842;2024-01-06T06:33:13;1.23;;;0.80;;
14292;SDS011;62290;59.420;17.842;2024-01-06T06:35:42;0.70;;;0.70;;
14292;SDS011;62290;59.420;17.842;2024-01-06T06:38:10;1.02;;;0.88;;
14292;SDS011;62290;59.420;17.842;2024-01-06T06:40:39;0.88;;;0.75;;
14292;SDS011;62290;59.420;17.842;2024-01-06T06:43:07;0.82;;;0.70;;
14292;SDS011;62290;59.420;17.842;2024-01-06T06:45:35;0.82;;;0.70;;
14292;SDS011;62290;59.420;17.842;2024-01-06T06:48:04;0.60;;;0.60;;
14292;SDS011;62290;59.420;17.842;2024-01-06T06:50:33;1.42;;;0.80;;
14292;SDS011;62290;59.420;17.842;2024-01-06T06:53:01;1.02;;;0.77;;
14292;SDS011;62290;59.420;17.842;2024-01-06T06:55:29;0.75;;;0.70;;
14292;SDS011;62290;59.420;17.842;2024-01-06T06:57:58;0.75;;;0.75;;
14292;SDS011;62290;59.420;17.842;2024-01-06T07:00:26;0.77;;;0.70;;
14292;SDS011;62290;59.420;17.842;2024-01-06T07:02:54;0.80;;;0.80;;
14292;SDS011;62290;59.420;17.842;2024-01-06T07:05:23;1.00;;;0.90;;
14292;SDS011;62290;59.420;17.842;2024-01-06T07:07:51;0.98;;;0.88;;
14292;SDS011;62290;59.420;17.842;2024-01-06T07:10:19;0.95;;;0.75;;
14292;SDS011;62290;59.420;17.842;2024-01-06T07:12:47;1.38;;;0.80;;
14292;SDS011;62290;59.420;17.842;2024-01-06T07:15:16;0.80;;;0.80;;
14292;SDS011;62290;59.420;17.842;2024-01-06T07:17:44;0.85;;;0.80;;
14292;SDS011;62290;59.420;17.842;2024-01-06T07:20:12;1.30;;;0.82;;
14292;SDS011;62290;59.420;17.842;2024-01-06T07:22:40;1.92;;;0.90;;
14292;SDS011;62290;59.420;17.842;2024-01-06T07:25:08;1.02;;;0.60;;
14292;SDS011;62290;59.420;17.842;2024-01-06T07:27:36;0.93;;;0.77;;
14292;SDS011;62290;59.420;17.842;2024-01-06T07:30:05;1.77;;;0.93;;
14292;SDS011;62290;59.420;17.842;2024-01-06T07:32:35;0.88;;;0.88;;
14292;SDS011;62290;59.420;17.842;2024-01-06T07:35:04;1.10;;;0.90;;
14292;SDS011;62290;59.420;17.842;2024-01-06T07:37:33;0.90;;;0.80;;
14292;SDS011;62290;59.420;17.842;2024-01-06T07:40:01;0.98;;;0.77;;
14292;SDS011;62290;59.420;17.842;2024-01-06T07:42:29;0.90;;;0.77;;
14292;SDS011;62290;59.420;17.842;2024-01-06T07:44:58;0.80;;;0.80;;
14292;SDS011;62290;59.420;17.842;2024-01-06T07:47:26;1.08;;;0.98;;
14292;SDS011;62290;59.420;17.842;2024-01-06T07:49:55;0.80;;;0.80;;
14292;SDS011;62290;59.420;17.842;2024-01-06T07:52:24;1.10;;;0.90;;
14292;SDS011;62290;59.420;17.842;2024-01-06T07:54:52;1.17;;;0.80;;
14292;SDS011;62290;59.420;17.842;2024-01-06T07:57:20;1.08;;;0.85;;
14292;SDS011;62290;59.420;17.842;2024-01-06T07:59:48;1.33;;;0.95;;
14292;SDS011;62290;59.420;17.842;2024-01-06T08:02:16;1.67;;;1.02;;
14292;SDS011;62290;59.420;17.842;2024-01-06T08:04:44;1.13;;;0.90;;
14292;SDS011;62290;59.420;17.842;2024-01-06T08:07:14;2.03;;;1.65;;
14292;SDS011;62290;59.420;17.842;2024-01-06T08:09:42;1.20;;;0.90;;
14292;SDS011;62290;59.420;17.842;2024-01-06T08:12:10;4.35;;;1.27;;
14292;SDS011;62290;59.420;17.842;2024-01-06T08:14:38;1.50;;;1.00;;
14292;SDS011;62290;59.420;17.842;2024-01-06T08:17:06;1.60;;;1.00;;
14292;SDS011;62290;59.420;17.842;2024-01-06T08:19:34;2.28;;;0.90;;
14292;SDS011;62290;59.420;17.842;2024-01-06T08:22:02;1.85;;;1.00;;
14292;SDS011;62290;59.420;17.842;2024-01-06T08:24:32;1.13;;;0.88;;
14292;SDS011;62290;59.420;17.842;2024-01-06T08:27:00;1.73;;;1.00;;
14292;SDS011;62290;59.420;17.842;2024-01-06T08:29:28;1.00;;;0.98;;
14292;SDS011;62290;59.420;17.842;2024-01-06T08:31:56;1.10;;;0.93;;
14292;SDS011;62290;59.420;17.842;2024-01-06T08:34:24;1.20;;;0.80;;
14292;SDS011;62290;59.420;17.842;2024-01-06T08:36:58;0.70;;;0.70;;
14292;SDS011;62290;59.420;17.842;2024-01-06T08:39:26;1.80;;;0.95;;
14292;SDS011;62290;59.420;17.842;2024-01-06T08:41:56;1.15;;;1.05;;
14292;SDS011;62290;59.420;17.842;2024-01-06T08:44:27;2.03;;;1.00;;
14292;SDS011;62290;59.420;17.842;2024-01-06T08:46:55;1.02;;;0.80;;
14292;SDS011;62290;59.420;17.842;2024-01-06T08:49:23;1.23;;;0.93;;
14292;SDS011;62290;59.420;17.842;2024-01-06T08:51:52;1.17;;;1.08;;
14292;SDS011;62290;59.420;17.842;2024-01-06T08:54:20;1.70;;;0.90;;
14292;SDS011;62290;59.420;17.842;2024-01-06T08:56:48;1.90;;;1.00;;
14292;SDS011;62290;59.420;17.842;2024-01-06T08:59:17;1.13;;;1.02;;
14292;SDS011;62290;59.420;17.842;2024-01-06T09:01:46;1.02;;;0.93;;
14292;SDS011;62290;59.420;17.842;2024-01-06T09:04:16;5.75;;;1.10;;
14292;SDS011;62290;59.420;17.842;2024-01-06T09:06:44;1.35;;;1.15;;
14292;SDS011;62290;59.420;17.842;2024-01-06T09:09:13;3.20;;;1.10;;
14292;SDS011;62290;59.420;17.842;2024-01-06T09:11:41;2.10;;;1.65;;
14292;SDS011;62290;59.420;17.842;2024-01-06T09:14:10;1.05;;;0.98;;
14292;SDS011;62290;59.420;17.842;2024-01-06T09:16:40;2.40;;;0.75;;
14292;SDS011;62290;59.420;17.842;2024-01-06T09:19:08;1.50;;;1.17;;
14292;SDS011;62290;59.420;17.842;2024-01-06T09:21:36;1.10;;;1.00;;
14292;SDS011;62290;59.420;17.842;2024-01-06T09:24:04;1.05;;;1.00;;
14292;SDS011;62290;59.420;17.842;2024-01-06T09:26:33;0.80;;;0.70;;
14292;SDS011;62290;59.420;17.842;2024-01-06T09:29:01;1.05;;;0.95;;
14292;SDS011;62290;59.420;17.842;2024-01-06T09:31:30;1.20;;;1.02;;
14292;SDS011;62290;59.420;17.842;2024-01-06T09:34:01;0.93;;;0.82;;
14292;SDS011;62290;59.420;17.842;2024-01-06T09:36:30;10.73;;;1.15;;
14292;SDS011;62290;59.420;17.842;2024-01-06T09:38:58;1.35;;;1.00;;
14292;SDS011;62290;59.420;17.842;2024-01-06T09:41:26;0.95;;;0.70;;
14292;SDS011;62290;59.420;17.842;2024-01-06T09:43:54;1.25;;;0.82;;
14292;SDS011;62290;59.420;17.842;2024-01-06T09:46:23;3.10;;;0.98;;
14292;SDS011;62290;59.420;17.842;2024-01-06T09:48:52;0.80;;;0.80;;
14292;SDS011;62290;59.420;17.842;2024-01-06T09:51:23;1.42;;;1.20;;
14292;SDS011;62290;59.420;17.842;2024-01-06T09:53:57;3.45;;;1.10;;
14292;SDS011;62290;59.420;17.842;2024-01-06T09:56:27;2.88;;;1.15;;
14292;SDS011;62290;59.420;17.842;2024-01-06T09:58:56;1.77;;;0.90;;
14292;SDS011;62290;59.420;17.842;2024-01-06T10:01:24;1.75;;;1.00;;
14292;SDS011;62290;59.420;17.842;2024-01-06T10:03:53;1.33;;;0.88;;
14292;SDS011;62290;59.420;17.842;2024-01-06T10:06:22;1.00;;;1.00;;
14292;SDS011;62290;59.420;17.842;2024-01-06T10:08:50;9.93;;;1.55;;
14292;SDS011;62290;59.420;17.842;2024-01-06T10:11:20;8.88;;;1.40;;
14292;SDS011;62290;59.420;17.842;2024-01-06T10:13:49;11.75;;;4.78;;
14292;SDS011;62290;59.420;17.842;2024-01-06T10:16:18;98.57;;;65.05;;
14292;SDS011;62290;59.420;17.842;2024-01-06T10:18:46;120.10;;;80.60;;
14292;SDS011;62290;59.420;17.842;2024-01-06T10:21:19;90.22;;;60.30;;
14292;SDS011;62290;59.420;17.842;2024-01-06T10:23:50;57.00;;;38.03;;
14292;SDS011;62290;59.420;17.842;2024-01-06T10:26:18;43.35;;;28.40;;
14292;SDS011;62290;59.420;17.842;2024-01-06T10:28:47;38.00;;;24.40;;
14292;SDS011;62290;59.420;17.842;2024-01-06T10:31:16;29.52;;;20.02;;
14292;SDS011;62290;59.420;17.842;2024-01-06T10:33:45;31.58;;;18.30;;
14292;SDS011;62290;59.420;17.842;2024-01-06T10:36:15;27.25;;;16.52;;
14292;SDS011;62290;59.420;17.842;2024-01-06T10:38:44;26.98;;;15.38;;
14292;SDS011;62290;59.420;17.842;2024-01-06T10:41:13;17.65;;;12.73;;
14292;SDS011;62290;59.420;17.842;2024-01-06T10:43:43;18.42;;;11.82;;
14292;SDS011;62290;59.420;17.842;2024-01-06T10:46:13;15.05;;;11.43;;
14292;SDS011;62290;59.420;17.842;2024-01-06T10:48:42;14.32;;;9.70;;
14292;SDS011;62290;59.420;17.842;2024-01-06T10:51:12;14.10;;;10.07;;
14292;SDS011;62290;59.420;17.842;2024-01-06T10:53:41;14.90;;;9.35;;
14292;SDS011;62290;59.420;17.842;2024-01-06T10:56:10;9.20;;;7.57;;
14292;SDS011;62290;59.420;17.842;2024-01-06T10:58:40;10.98;;;7.78;;
14292;SDS011;62290;59.420;17.842;2024-01-06T11:01:15;13.88;;;7.63;;
14292;SDS011;62290;59.420;17.842;2024-01-06T11:03:50;9.25;;;7.00;;
14292;SDS011;62290;59.420;17.842;2024-01-06T11:06:20;9.40;;;7.13;;
14292;SDS011;62290;59.420;17.842;2024-01-06T11:08:51;9.05;;;6.40;;
14292;SDS011;62290;59.420;17.842;2024-01-06T11:11:24;11.88;;;5.85;;
14292;SDS011;62290;59.420;17.842;2024-01-06T11:13:54;7.22;;;5.47;;
14292;SDS011;62290;59.420;17.842;2024-01-06T11:16:47;10.48;;;5.63;;
14292;SDS011;62290;59.420;17.842;2024-01-06T11:22:20;6.82;;;4.88;;
14292;SDS011;62290;59.420;17.842;2024-01-06T11:24:49;6.63;;;4.68;;
14292;SDS011;62290;59.420;17.842;2024-01-06T11:27:18;10.40;;;5.13;;
14292;SDS011;62290;59.420;17.842;2024-01-06T11:29:48;6.78;;;4.97;;
14292;SDS011;62290;59.420;17.842;2024-01-06T11:32:19;8.63;;;4.93;;
14292;SDS011;62290;59.420;17.842;2024-01-06T11:34:48;7.35;;;4.72;;
14292;SDS011;62290;59.420;17.842;2024-01-06T11:37:17;10.02;;;4.50;;
14292;SDS011;62290;59.420;17.842;2024-01-06T11:39:46;8.38;;;4.82;;
14292;SDS011;62290;59.420;17.842;2024-01-06T11:42:14;10.07;;;4.00;;
14292;SDS011;62290;59.420;17.842;2024-01-06T11:44:43;7.70;;;4.05;;
14292;SDS011;62290;59.420;17.842;2024-01-06T11:47:13;14.95;;;4.72;;
14292;SDS011;62290;59.420;17.842;2024-01-06T11:49:44;9.50;;;4.82;;
14292;SDS011;62290;59.420;17.842;2024-01-06T11:52:13;10.70;;;4.38;;
14292;SDS011;62290;59.420;17.842;2024-01-06T11:54:42;11.73;;;4.20;;
14292;SDS011;62290;59.420;17.842;2024-01-06T11:57:11;13.00;;;4.10;;
14292;SDS011;62290;59.420;17.842;2024-01-06T11:59:39;9.88;;;3.95;;
14292;SDS011;62290;59.420;17.842;2024-01-06T12:02:10;7.57;;;3.75;;
14292;SDS011;62290;59.420;17.842;2024-01-06T12:04:40;6.78;;;3.67;;
14292;SDS011;62290;59.420;17.842;2024-01-06T12:07:09;6.05;;;3.33;;
14292;SDS011;62290;59.420;17.842;2024-01-06T12:09:39;8.52;;;3.53;;
14292;SDS011;62290;59.420;17.842;2024-01-06T12:12:07;6.80;;;3.55;;
14292;SDS011;62290;59.420;17.842;2024-01-06T12:14:37;6.35;;;3.08;;
14292;SDS011;62290;59.420;17.842;2024-01-06T12:17:04;4.07;;;3.13;;
14292;SDS011;62290;59.420;17.842;2024-01-06T12:19:33;5.07;;;2.88;;
14292;SDS011;62290;59.420;17.842;2024-01-06T12:22:09;3.00;;;2.53;;
14292;SDS011;62290;59.420;17.842;2024-01-06T12:24:39;4.30;;;2.67;;
14292;SDS011;62290;59.420;17.842;2024-01-06T12:27:07;4.55;;;3.55;;
14292;SDS011;62290;59.420;17.842;2024-01-06T12:29:38;4.50;;;2.90;;
14292;SDS011;62290;59.420;17.842;2024-01-06T12:32:06;4.05;;;3.03;;
14292;SDS011;62290;59.420;17.842;2024-01-06T12:34:36;4.97;;;2.88;;
14292;SDS011;62290;59.420;17.842;2024-01-06T12:37:05;3.38;;;2.42;;
14292;SDS011;62290;59.420;17.842;2024-01-06T12:39:35;3.30;;;2.65;;
14292;SDS011;62290;59.420;17.842;2024-01-06T12:42:03;3.83;;;2.30;;
14292;SDS011;62290;59.420;17.842;2024-01-06T12:44:31;3.20;;;2.15;;
14292;SDS011;62290;59.420;17.842;2024-01-06T12:47:03;3.20;;;2.38;;
14292;SDS011;62290;59.420;17.842;2024-01-06T12:49:31;2.70;;;2.20;;
14292;SDS011;62290;59.420;17.842;2024-01-06T12:52:04;2.63;;;2.42;;
14292;SDS011;62290;59.420;17.842;2024-01-06T12:54:33;3.60;;;2.50;;
14292;SDS011;62290;59.420;17.842;2024-01-06T12:57:01;3.60;;;2.50;;
14292;SDS011;62290;59.420;17.842;2024-01-06T12:59:29;4.00;;;1.88;;
14292;SDS011;62290;59.420;17.842;2024-01-06T13:01:57;4.15;;;2.10;;
14292;SDS011;62290;59.420;17.842;2024-01-06T13:04:25;3.35;;;2.50;;
14292;SDS011;62290;59.420;17.842;2024-01-06T13:06:54;1.95;;;1.75;;
14292;SDS011;62290;59.420;17.842;2024-01-06T13:09:25;4.32;;;2.30;;
14292;SDS011;62290;59.420;17.842;2024-01-06T13:11:55;3.08;;;2.00;;
14292;SDS011;62290;59.420;17.842;2024-01-06T13:14:26;3.55;;;1.88;;
14292;SDS011;62290;59.420;17.842;2024-01-06T13:16:55;3.53;;;1.95;;
14292;SDS011;62290;59.420;17.842;2024-01-06T13:19:23;3.70;;;2.15;;
14292;SDS011;62290;59.420;17.842;2024-01-06T13:21:51;2.75;;;1.90;;
14292;SDS011;62290;59.420;17.842;2024-01-06T13:24:19;2.92;;;1.88;;
14292;SDS011;62290;59.420;17.842;2024-01-06T13:26:47;2.47;;;2.00;;
14292;SDS011;62290;59.420;17.842;2024-01-06T13:29:17;2.40;;;1.92;;
14292;SDS011;62290;59.420;17.842;2024-01-06T13:31:45;2.30;;;1.80;;
14292;SDS011;62290;59.420;17.842;2024-01-06T13:34:13;2.15;;;1.80;;
14292;SDS011;62290;59.420;17.842;2024-01-06T13:36:41;3.22;;;2.15;;
14292;SDS011;62290;59.420;17.842;2024-01-06T13:39:09;2.85;;;1.70;;
14292;SDS011;62290;59.420;17.842;2024-01-06T13:41:43;2.28;;;1.80;;
14292;SDS011;62290;59.420;17.842;2024-01-06T13:44:11;3.42;;;2.28;;
14292;SDS011;62290;59.420;17.842;2024-01-06T13:46:41;2.00;;;1.60;;
14292;SDS011;62290;59.420;17.842;2024-01-06T13:49:11;2.45;;;2.03;;
14292;SDS011;62290;59.420;17.842;2024-01-06T13:51:39;3.40;;;1.85;;
14292;SDS011;62290;59.420;17.842;2024-01-06T13:54:07;2.10;;;1.73;;
14292;SDS011;62290;59.420;17.842;2024-01-06T13:56:36;2.63;;;1.98;;
14292;SDS011;62290;59.420;17.842;2024-01-06T13:59:04;1.85;;;1.50;;
14292;SDS011;62290;59.420;17.842;2024-01-06T14:01:32;2.45;;;1.90;;
14292;SDS011;62290;59.420;17.842;2024-01-06T14:04:02;2.22;;;2.03;;
14292;SDS011;62290;59.420;17.842;2024-01-06T14:06:32;2.38;;;1.80;;
14292;SDS011;62290;59.420;17.842;2024-01-06T14:09:00;2.05;;;1.80;;
14292;SDS011;62290;59.420;17.842;2024-01-06T14:11:28;3.28;;;2.45;;
14292;SDS011;62290;59.420;17.842;2024-01-06T14:13:57;3.53;;;2.03;;
14292;SDS011;62290;59.420;17.842;2024-01-06T14:16:25;2.45;;;2.05;;
14292;SDS011;62290;59.420;17.842;2024-01-06T14:18:54;1.58;;;1.45;;
14292;SDS011;62290;59.420;17.842;2024-01-06T14:21:23;2.83;;;1.90;;
14292;SDS011;62290;59.420;17.842;2024-01-06T14:23:51;2.65;;;1.88;;
14292;SDS011;62290;59.420;17.842;2024-01-06T14:26:19;3.47;;;2.17;;
14292;SDS011;62290;59.420;17.842;2024-01-06T14:28:47;2.40;;;2.00;;
14292;SDS011;62290;59.420;17.842;2024-01-06T14:31:15;2.83;;;2.05;;
14292;SDS011;62290;59.420;17.842;2024-01-06T14:33:44;2.58;;;1.95;;
14292;SDS011;62290;59.420;17.842;2024-01-06T14:36:12;2.35;;;1.98;;
14292;SDS011;62290;59.420;17.842;2024-01-06T14:38:41;2.42;;;1.63;;
14292;SDS011;62290;59.420;17.842;2024-01-06T14:41:09;3.17;;;1.80;;
14292;SDS011;62290;59.420;17.842;2024-01-06T14:43:37;2.55;;;1.90;;
14292;SDS011;62290;59.420;17.842;2024-01-06T14:46:06;2.65;;;1.70;;